createdAt,value
2019-01-30T00:01:56.657Z,48.92
2019-01-30T00:03:58.249Z,48.86
2019-01-30T00:05:59.847Z,49.04
2019-01-30T00:08:01.434Z,49.03
2019-01-30T00:10:03.029Z,49.26
2019-01-30T00:12:04.621Z,49.31
2019-01-30T00:14:06.214Z,49.37
2019-01-30T00:16:07.844Z,49.49
2019-01-30T00:18:09.427Z,49.80
2019-01-30T00:20:11.059Z,49.15
2019-01-30T00:22:12.684Z,48.40
2019-01-30T00:24:14.278Z,48.52
2019-01-30T00:26:15.869Z,48.75
2019-01-30T00:28:17.471Z,48.95
2019-01-30T00:30:19.065Z,49.32
2019-01-30T00:32:20.672Z,49.61
2019-01-30T00:34:22.309Z,50.06
2019-01-30T00:36:23.901Z,50.19
2019-01-30T00:38:25.503Z,50.50
2019-01-30T00:40:27.098Z,50.76
2019-01-30T00:42:28.697Z,51.04
2019-01-30T00:44:30.304Z,50.92
2019-01-30T00:46:31.938Z,51.34
2019-01-30T00:48:33.540Z,51.62
2019-01-30T00:50:35.133Z,51.63
2019-01-30T00:52:36.802Z,51.87
2019-01-30T00:54:38.419Z,51.90
2019-01-30T00:56:40.018Z,52.21
2019-01-30T00:58:41.613Z,52.14
2019-01-30T01:00:43.210Z,52.03
2019-01-30T01:02:44.820Z,52.10
2019-01-30T01:04:46.409Z,52.02
2019-01-30T01:06:48.044Z,52.06
2019-01-30T01:08:49.633Z,52.14
2019-01-30T01:10:51.215Z,52.26
2019-01-30T01:12:52.837Z,52.23
2019-01-30T01:14:54.437Z,52.45
2019-01-30T01:16:56.079Z,52.77
2019-01-30T01:18:57.692Z,53.06
2019-01-30T01:20:59.280Z,52.61
2019-01-30T01:23:00.878Z,52.35
2019-01-30T01:25:02.491Z,52.42
2019-01-30T01:27:04.085Z,52.28
2019-01-30T01:29:05.794Z,52.14
2019-01-30T01:31:07.400Z,52.13
2019-01-30T01:33:09.012Z,51.85
2019-01-30T01:35:10.638Z,51.97
2019-01-30T01:37:12.284Z,51.85
2019-01-30T01:39:13.895Z,51.76
2019-01-30T01:41:15.490Z,51.86
2019-01-30T01:43:17.089Z,51.97
2019-01-30T01:45:18.681Z,52.21
2019-01-30T01:47:20.287Z,52.47
2019-01-30T01:49:21.923Z,52.72
2019-01-30T01:51:23.524Z,53.36
2019-01-30T01:53:25.122Z,53.58
2019-01-30T01:55:26.717Z,53.27
2019-01-30T01:57:28.309Z,53.45
2019-01-30T01:59:29.915Z,53.37
2019-01-30T02:01:31.598Z,53.44
2019-01-30T02:03:33.193Z,53.68
2019-01-30T02:05:34.803Z,53.82
2019-01-30T02:07:36.438Z,53.74
2019-01-30T02:09:38.048Z,53.47
2019-01-30T02:11:39.652Z,53.50
2019-01-30T02:13:41.250Z,53.31
2019-01-30T02:15:42.842Z,53.36
2019-01-30T02:17:44.424Z,53.12
2019-01-30T02:19:46.046Z,53.08
2019-01-30T02:21:47.642Z,53.04
2019-01-30T02:23:49.237Z,53.08
2019-01-30T02:25:50.863Z,52.96
2019-01-30T02:27:52.461Z,52.84
2019-01-30T02:29:54.101Z,52.70
2019-01-30T02:31:55.713Z,52.54
2019-01-30T02:33:57.309Z,52.48
2019-01-30T02:35:58.958Z,52.44
2019-01-30T02:38:00.548Z,52.41
2019-01-30T02:40:02.144Z,52.17
2019-01-30T02:42:03.789Z,52.13
2019-01-30T02:44:05.393Z,52.18
2019-01-30T02:46:06.988Z,52.11
2019-01-30T02:48:08.594Z,52.12
2019-01-30T02:50:10.205Z,52.12
2019-01-30T02:52:11.852Z,52.48
2019-01-30T02:54:13.452Z,52.54
2019-01-30T02:56:15.065Z,52.59
2019-01-30T02:58:16.677Z,52.71
2019-01-30T03:00:18.299Z,52.85
2019-01-30T03:02:19.944Z,52.90
2019-01-30T03:04:21.573Z,52.99
2019-01-30T03:06:23.176Z,52.88
2019-01-30T03:08:24.835Z,52.81
2019-01-30T03:10:26.447Z,52.83
2019-01-30T03:12:28.041Z,52.79
2019-01-30T03:14:29.671Z,52.89
2019-01-30T03:16:31.265Z,52.56
2019-01-30T03:18:32.863Z,52.45
2019-01-30T03:20:34.492Z,52.25
2019-01-30T03:22:36.113Z,52.87
2019-01-30T03:24:37.705Z,52.27
2019-01-30T03:26:39.326Z,52.27
2019-01-30T03:28:40.936Z,52.10
2019-01-30T03:30:42.517Z,52.16
2019-01-30T03:32:44.129Z,51.92
2019-01-30T03:34:45.734Z,52.02
2019-01-30T03:36:47.404Z,51.86
2019-01-30T03:38:49.001Z,52.02
2019-01-30T03:40:50.607Z,52.06
2019-01-30T03:42:52.224Z,50.94
2019-01-30T03:44:53.818Z,49.44
2019-01-30T03:46:55.423Z,47.95
2019-01-30T03:48:57.008Z,46.93
2019-01-30T03:50:58.647Z,46.51
2019-01-30T03:53:00.237Z,47.23
2019-01-30T03:55:01.885Z,47.68
2019-01-30T03:57:03.485Z,48.34
2019-01-30T03:59:05.080Z,47.61
2019-01-30T04:01:06.674Z,46.86
2019-01-30T04:03:08.272Z,46.30
2019-01-30T04:05:09.879Z,46.22
2019-01-30T04:07:11.505Z,46.49
2019-01-30T04:09:13.158Z,46.77
2019-01-30T04:11:14.765Z,46.91
2019-01-30T04:13:16.380Z,47.05
2019-01-30T04:15:18.007Z,47.13
2019-01-30T04:17:19.602Z,47.14
2019-01-30T04:19:21.208Z,47.15
2019-01-30T04:21:22.812Z,47.13
2019-01-30T04:23:24.435Z,47.16
2019-01-30T04:25:26.044Z,47.15
2019-01-30T04:27:27.679Z,47.16
2019-01-30T04:29:29.283Z,47.08
2019-01-30T04:31:37.955Z,47.06
2019-01-30T04:33:32.525Z,47.09
2019-01-30T04:35:34.109Z,47.10
2019-01-30T04:37:35.716Z,47.11
2019-01-30T04:39:37.341Z,47.13
2019-01-30T04:41:38.951Z,47.21
2019-01-30T04:43:40.547Z,47.25
2019-01-30T04:45:42.160Z,47.35
2019-01-30T04:47:43.778Z,47.39
2019-01-30T04:49:45.405Z,47.50
2019-01-30T04:51:47.027Z,47.59
2019-01-30T04:53:48.950Z,47.70
2019-01-30T04:55:50.550Z,47.79
2019-01-30T04:57:52.183Z,47.91
2019-01-30T04:59:53.776Z,47.95
2019-01-30T05:01:55.406Z,48.12
2019-01-30T05:03:57.016Z,48.18
2019-01-30T05:05:58.616Z,48.30
2019-01-30T05:08:00.224Z,48.43
2019-01-30T05:10:01.827Z,48.54
2019-01-30T05:12:03.422Z,48.62
2019-01-30T05:14:05.043Z,48.77
2019-01-30T05:16:06.659Z,48.82
2019-01-30T05:18:08.263Z,48.88
2019-01-30T05:20:09.924Z,48.98
2019-01-30T05:22:11.529Z,49.08
2019-01-30T05:24:13.269Z,49.15
2019-01-30T05:26:14.831Z,49.11
2019-01-30T05:28:16.445Z,49.01
2019-01-30T05:30:18.037Z,48.88
2019-01-30T05:32:19.682Z,48.69
2019-01-30T05:34:21.289Z,48.40
2019-01-30T05:36:22.885Z,48.12
2019-01-30T05:38:24.492Z,47.79
2019-01-30T05:40:26.089Z,47.47
2019-01-30T05:42:27.685Z,47.21
2019-01-30T05:44:29.298Z,47.02
2019-01-30T05:46:30.935Z,46.91
2019-01-30T05:48:32.520Z,46.71
2019-01-30T05:50:34.115Z,46.65
2019-01-30T05:52:35.757Z,46.45
2019-01-30T05:54:37.368Z,46.42
2019-01-30T05:56:38.965Z,46.33
2019-01-30T05:58:40.568Z,46.30
2019-01-30T06:00:42.186Z,46.22
2019-01-30T06:02:43.844Z,46.04
2019-01-30T06:04:45.445Z,45.98
2019-01-30T06:06:47.043Z,45.98
2019-01-30T06:08:48.641Z,46.00
2019-01-30T06:10:50.232Z,46.03
2019-01-30T06:12:51.829Z,46.03
2019-01-30T06:14:53.471Z,46.15
2019-01-30T06:16:55.069Z,46.27
2019-01-30T06:18:56.652Z,46.41
2019-01-30T06:20:58.260Z,46.56
2019-01-30T06:23:01.831Z,46.66
2019-01-30T06:25:01.521Z,46.82
2019-01-30T06:27:03.128Z,46.89
2019-01-30T06:29:04.723Z,47.00
2019-01-30T06:31:06.355Z,47.12
2019-01-30T06:33:07.971Z,47.24
2019-01-30T06:35:09.884Z,47.32
2019-01-30T06:37:11.478Z,47.38
2019-01-30T06:39:13.073Z,47.49
2019-01-30T06:41:14.679Z,47.59
2019-01-30T06:43:16.317Z,47.66
2019-01-30T06:45:17.923Z,47.75
2019-01-30T06:47:19.517Z,47.81
2019-01-30T06:49:21.155Z,47.84
2019-01-30T06:51:22.791Z,47.93
2019-01-30T06:53:24.397Z,47.98
2019-01-30T06:55:26.036Z,48.02
2019-01-30T06:57:27.651Z,48.00
2019-01-30T06:59:29.246Z,47.87
2019-01-30T07:01:30.841Z,47.73
2019-01-30T07:03:32.476Z,47.58
2019-01-30T07:05:34.069Z,47.33
2019-01-30T07:07:36.263Z,47.10
2019-01-30T07:09:38.007Z,46.89
2019-01-30T07:11:39.602Z,46.62
2019-01-30T07:13:41.183Z,46.43
2019-01-30T07:15:42.768Z,46.23
2019-01-30T07:17:44.409Z,46.12
2019-01-30T07:19:46.023Z,46.04
2019-01-30T07:21:47.619Z,46.02
2019-01-30T07:23:49.744Z,45.97
2019-01-30T07:25:51.351Z,45.91
2019-01-30T07:27:52.946Z,45.84
2019-01-30T07:29:54.566Z,45.79
2019-01-30T07:31:56.162Z,45.80
2019-01-30T07:33:57.767Z,45.77
2019-01-30T07:35:59.404Z,45.76
2019-01-30T07:38:01.030Z,45.78
2019-01-30T07:40:02.637Z,45.84
2019-01-30T07:42:04.277Z,45.88
2019-01-30T07:44:05.870Z,45.91
2019-01-30T07:46:07.461Z,46.10
2019-01-30T07:48:09.053Z,46.22
2019-01-30T07:50:10.654Z,46.34
2019-01-30T07:52:12.282Z,46.47
2019-01-30T07:54:13.875Z,46.56
2019-01-30T07:56:15.459Z,46.61
2019-01-30T07:58:17.043Z,46.66
2019-01-30T08:00:18.642Z,46.77
2019-01-30T08:02:21.944Z,46.89
2019-01-30T08:04:21.906Z,46.92
2019-01-30T08:06:23.512Z,47.00
2019-01-30T08:08:25.136Z,47.02
2019-01-30T08:10:26.734Z,47.06
2019-01-30T08:12:28.373Z,47.14
2019-01-30T08:14:29.970Z,47.21
2019-01-30T08:16:31.567Z,47.25
2019-01-30T08:18:33.169Z,47.20
2019-01-30T08:20:34.805Z,47.16
2019-01-30T08:22:36.459Z,47.10
2019-01-30T08:24:38.295Z,46.99
2019-01-30T08:26:39.720Z,46.90
2019-01-30T08:28:41.525Z,46.74
2019-01-30T08:30:43.287Z,46.62
2019-01-30T08:32:44.823Z,46.44
2019-01-30T08:34:46.341Z,46.24
2019-01-30T08:36:47.942Z,46.09
2019-01-30T08:38:49.542Z,45.98
2019-01-30T08:40:51.142Z,45.83
2019-01-30T08:42:52.759Z,45.71
2019-01-30T08:44:54.396Z,45.58
2019-01-30T08:46:55.989Z,45.52
2019-01-30T08:48:57.578Z,45.38
2019-01-30T08:50:59.173Z,45.31
2019-01-30T08:53:00.785Z,45.30
2019-01-30T08:55:02.405Z,45.25
2019-01-30T08:57:04.029Z,45.28
2019-01-30T08:59:06.008Z,45.25
2019-01-30T09:01:07.276Z,45.40
2019-01-30T09:03:14.941Z,45.45
2019-01-30T09:05:10.530Z,45.43
2019-01-30T09:07:12.126Z,45.51
2019-01-30T09:09:13.721Z,45.60
2019-01-30T09:11:15.313Z,45.66
2019-01-30T09:13:17.072Z,45.74
2019-01-30T09:15:18.625Z,45.81
2019-01-30T09:17:20.218Z,45.89
2019-01-30T09:19:21.860Z,46.00
2019-01-30T09:21:23.471Z,46.05
2019-01-30T09:23:25.061Z,46.15
2019-01-30T09:25:26.667Z,46.16
2019-01-30T09:27:28.306Z,46.20
2019-01-30T09:29:29.916Z,46.23
2019-01-30T09:31:31.523Z,46.27
2019-01-30T09:33:33.121Z,46.37
2019-01-30T09:35:34.723Z,46.47
2019-01-30T09:37:36.317Z,46.52
2019-01-30T09:39:37.948Z,46.59
2019-01-30T09:41:39.576Z,46.59
2019-01-30T09:43:41.212Z,46.58
2019-01-30T09:45:42.819Z,46.56
2019-01-30T09:47:44.437Z,46.52
2019-01-30T09:49:46.074Z,46.39
2019-01-30T09:51:47.680Z,46.20
2019-01-30T09:53:49.401Z,45.99
2019-01-30T09:55:53.490Z,45.91
2019-01-30T09:57:55.166Z,45.76
2019-01-30T09:59:56.799Z,45.59
2019-01-30T10:01:58.408Z,45.50
2019-01-30T10:04:00.033Z,45.35
2019-01-30T10:06:01.625Z,45.16
2019-01-30T10:08:03.218Z,45.04
2019-01-30T10:10:04.809Z,44.99
2019-01-30T10:12:06.429Z,44.90
2019-01-30T10:14:08.050Z,44.88
2019-01-30T10:16:09.646Z,44.95
2019-01-30T10:18:11.262Z,44.90
2019-01-30T10:20:12.900Z,45.00
2019-01-30T10:22:14.501Z,45.13
2019-01-30T10:24:16.122Z,45.23
2019-01-30T10:26:17.741Z,45.22
2019-01-30T10:28:19.567Z,45.29
2019-01-30T10:30:21.194Z,45.42
2019-01-30T10:32:22.863Z,45.44
2019-01-30T10:34:25.464Z,45.52
2019-01-30T10:36:27.061Z,45.65
2019-01-30T10:38:28.654Z,45.74
2019-01-30T10:40:30.245Z,45.83
2019-01-30T10:42:31.847Z,45.95
2019-01-30T10:44:33.469Z,46.04
2019-01-30T10:46:35.066Z,46.10
2019-01-30T10:48:36.719Z,46.20
2019-01-30T10:50:38.336Z,46.22
2019-01-30T10:52:39.934Z,46.26
2019-01-30T10:54:41.553Z,46.32
2019-01-30T10:56:43.160Z,46.30
2019-01-30T10:58:44.757Z,46.41
2019-01-30T11:00:46.374Z,46.46
2019-01-30T11:02:48.208Z,46.51
2019-01-30T11:04:49.867Z,46.52
2019-01-30T11:06:51.467Z,46.62
2019-01-30T11:08:53.090Z,46.63
2019-01-30T11:10:54.700Z,46.64
2019-01-30T11:12:56.284Z,46.64
2019-01-30T11:14:57.920Z,46.61
2019-01-30T11:16:59.514Z,46.60
2019-01-30T11:19:01.106Z,46.56
2019-01-30T11:21:02.730Z,46.40
2019-01-30T11:23:04.326Z,46.18
2019-01-30T11:25:05.946Z,45.96
2019-01-30T11:27:07.547Z,45.77
2019-01-30T11:29:09.141Z,45.69
2019-01-30T11:31:10.724Z,45.44
2019-01-30T11:33:12.317Z,45.25
2019-01-30T11:35:13.957Z,45.21
2019-01-30T11:37:15.564Z,45.06
2019-01-30T11:39:17.197Z,45.11
2019-01-30T11:41:18.823Z,45.12
2019-01-30T11:43:20.431Z,45.19
2019-01-30T11:45:22.040Z,45.19
2019-01-30T11:47:23.681Z,45.20
2019-01-30T11:49:25.291Z,45.22
2019-01-30T11:51:26.891Z,45.34
2019-01-30T11:53:28.524Z,45.46
2019-01-30T11:55:30.127Z,45.55
2019-01-30T11:57:31.766Z,45.72
2019-01-30T11:59:33.361Z,45.82
2019-01-30T12:01:34.943Z,45.99
2019-01-30T12:03:36.537Z,46.11
2019-01-30T12:05:38.153Z,46.20
2019-01-30T12:07:39.764Z,46.28
2019-01-30T12:09:41.418Z,46.33
2019-01-30T12:11:43.010Z,46.42
2019-01-30T12:13:44.612Z,46.44
2019-01-30T12:15:46.209Z,46.54
2019-01-30T12:17:47.805Z,46.60
2019-01-30T12:19:49.398Z,46.66
2019-01-30T12:21:51.041Z,46.72
2019-01-30T12:23:52.652Z,46.76
2019-01-30T12:25:54.239Z,46.81
2019-01-30T12:27:55.883Z,46.86
2019-01-30T12:29:57.464Z,46.90
2019-01-30T12:31:59.074Z,46.89
2019-01-30T12:34:00.671Z,46.90
2019-01-30T12:36:02.267Z,46.81
2019-01-30T12:38:03.905Z,46.71
2019-01-30T12:40:05.513Z,46.64
2019-01-30T12:42:07.110Z,46.51
2019-01-30T12:44:08.706Z,46.39
2019-01-30T12:46:10.318Z,46.27
2019-01-30T12:48:11.922Z,46.12
2019-01-30T12:50:13.534Z,45.84
2019-01-30T12:52:15.148Z,45.67
2019-01-30T12:54:16.900Z,45.50
2019-01-30T12:56:18.488Z,45.43
2019-01-30T12:58:20.128Z,45.42
2019-01-30T13:00:21.751Z,45.33
2019-01-30T13:02:23.338Z,45.28
2019-01-30T13:04:24.986Z,45.24
2019-01-30T13:06:26.598Z,45.24
2019-01-30T13:08:28.213Z,45.16
2019-01-30T13:10:29.863Z,45.13
2019-01-30T13:12:31.553Z,45.18
2019-01-30T13:14:33.127Z,45.23
2019-01-30T13:16:34.737Z,45.42
2019-01-30T13:18:36.343Z,45.63
2019-01-30T13:20:37.990Z,45.83
2019-01-30T13:22:39.665Z,46.01
2019-01-30T13:24:41.907Z,46.12
2019-01-30T13:26:43.553Z,46.29
2019-01-30T13:28:45.152Z,46.39
2019-01-30T13:30:46.746Z,46.49
2019-01-30T13:32:48.401Z,46.55
2019-01-30T13:34:49.999Z,46.57
2019-01-30T13:36:51.594Z,46.56
2019-01-30T13:38:53.176Z,46.57
2019-01-30T13:40:54.765Z,46.57
2019-01-30T13:42:56.362Z,46.53
2019-01-30T13:44:58.008Z,46.48
2019-01-30T13:46:59.619Z,46.45
2019-01-30T13:49:01.268Z,46.37
2019-01-30T13:51:02.879Z,46.42
2019-01-30T13:53:04.513Z,46.43
2019-01-30T13:55:06.176Z,46.58
2019-01-30T13:57:07.875Z,46.92
2019-01-30T13:59:09.515Z,46.93
2019-01-30T14:01:17.280Z,47.09
2019-01-30T14:03:12.782Z,47.06
2019-01-30T14:05:14.390Z,46.99
2019-01-30T14:07:15.975Z,47.13
2019-01-30T14:09:17.615Z,47.18
2019-01-30T14:11:19.215Z,47.24
2019-01-30T14:13:20.868Z,47.19
2019-01-30T14:15:22.499Z,47.29
2019-01-30T14:17:24.112Z,47.30
2019-01-30T14:19:25.724Z,47.43
2019-01-30T14:21:27.321Z,47.58
2019-01-30T14:23:28.923Z,47.72
2019-01-30T14:25:30.524Z,47.83
2019-01-30T14:27:32.201Z,48.02
2019-01-30T14:29:33.797Z,48.18
2019-01-30T14:31:35.444Z,48.27
2019-01-30T14:33:37.061Z,48.32
2019-01-30T14:35:38.667Z,48.46
2019-01-30T14:37:40.266Z,48.70
2019-01-30T14:39:41.981Z,48.80
2019-01-30T14:41:43.579Z,48.84
2019-01-30T14:43:45.176Z,48.87
2019-01-30T14:45:46.816Z,49.16
2019-01-30T14:47:48.462Z,49.10
2019-01-30T14:49:50.168Z,49.27
2019-01-30T14:51:51.848Z,49.23
2019-01-30T14:53:53.465Z,49.30
2019-01-30T14:55:55.217Z,49.50
2019-01-30T14:57:56.779Z,49.60
2019-01-30T14:59:58.397Z,49.40
2019-01-30T15:02:00.110Z,49.61
2019-01-30T15:04:01.856Z,49.54
2019-01-30T15:06:03.391Z,49.62
2019-01-30T15:08:05.038Z,49.61
2019-01-30T15:10:06.645Z,49.71
2019-01-30T15:12:08.302Z,49.50
2019-01-30T15:14:09.896Z,49.34
2019-01-30T15:16:11.530Z,49.35
2019-01-30T15:18:13.171Z,49.27
2019-01-30T15:20:14.801Z,49.57
2019-01-30T15:22:16.477Z,49.30
2019-01-30T15:24:18.235Z,49.10
2019-01-30T15:26:19.959Z,48.84
2019-01-30T15:28:21.593Z,48.81
2019-01-30T15:30:23.225Z,48.76
2019-01-30T15:32:24.841Z,48.66
2019-01-30T15:34:26.456Z,48.80
2019-01-30T15:36:28.067Z,48.69
2019-01-30T15:38:29.677Z,49.17
2019-01-30T15:40:31.606Z,49.08
2019-01-30T15:42:33.273Z,49.25
2019-01-30T15:44:34.900Z,49.24
2019-01-30T15:46:36.547Z,49.48
2019-01-30T15:48:38.169Z,49.37
2019-01-30T15:50:39.772Z,49.37
2019-01-30T15:52:41.428Z,49.30
2019-01-30T15:54:43.035Z,49.38
2019-01-30T15:56:44.657Z,49.27
2019-01-30T15:58:46.290Z,49.29
2019-01-30T16:00:47.900Z,49.27
2019-01-30T16:02:49.523Z,49.26
2019-01-30T16:04:51.125Z,48.95
2019-01-30T16:06:52.757Z,48.13
2019-01-30T16:08:54.349Z,47.79
2019-01-30T16:10:55.991Z,48.04
2019-01-30T16:12:57.596Z,47.35
2019-01-30T16:14:59.233Z,48.24
2019-01-30T16:17:00.830Z,48.05
2019-01-30T16:19:02.412Z,48.57
2019-01-30T16:21:04.010Z,48.09
2019-01-30T16:23:05.624Z,47.06
2019-01-30T16:25:09.329Z,47.19
2019-01-30T16:27:08.938Z,47.43
2019-01-30T16:29:10.548Z,47.53
2019-01-30T16:31:12.160Z,48.54
2019-01-30T16:33:13.824Z,47.30
2019-01-30T16:35:15.421Z,47.86
2019-01-30T16:37:17.026Z,48.44
2019-01-30T16:39:18.621Z,47.95
2019-01-30T16:41:20.219Z,47.51
2019-01-30T16:43:21.809Z,47.64
2019-01-30T16:45:23.435Z,47.52
2019-01-30T16:47:25.031Z,48.71
2019-01-30T16:49:26.660Z,48.49
2019-01-30T16:51:28.267Z,48.68
2019-01-30T16:53:29.857Z,47.55
2019-01-30T16:55:31.573Z,47.11
2019-01-30T16:57:33.150Z,47.19
2019-01-30T16:59:34.745Z,45.91
2019-01-30T17:01:36.365Z,47.32
2019-01-30T17:03:37.976Z,48.56
2019-01-30T17:05:39.590Z,47.42
2019-01-30T17:07:41.188Z,47.68
2019-01-30T17:09:42.824Z,47.97
2019-01-30T17:11:44.436Z,47.65
2019-01-30T17:13:46.053Z,48.17
2019-01-30T17:15:47.651Z,47.77
2019-01-30T17:17:49.243Z,47.80
2019-01-30T17:19:50.882Z,48.05
2019-01-30T17:21:52.496Z,48.27
2019-01-30T17:23:56.910Z,49.05
2019-01-30T17:25:55.773Z,48.85
2019-01-30T17:27:57.379Z,48.51
2019-01-30T17:29:58.981Z,48.26
2019-01-30T17:32:00.592Z,48.06
2019-01-30T17:34:02.189Z,48.42
2019-01-30T17:36:03.790Z,48.65
2019-01-30T17:38:05.404Z,48.46
2019-01-30T17:40:07.002Z,47.90
2019-01-30T17:42:08.642Z,48.38
2019-01-30T17:44:12.810Z,47.51
2019-01-30T17:46:11.885Z,48.46
2019-01-30T17:48:13.520Z,48.38
2019-01-30T17:50:15.135Z,47.96
2019-01-30T17:52:16.743Z,47.62
2019-01-30T17:54:18.379Z,47.78
2019-01-30T17:56:19.973Z,47.83
2019-01-30T17:58:21.593Z,47.98
2019-01-30T18:00:23.203Z,47.32
2019-01-30T18:02:24.832Z,47.17
2019-01-30T18:04:26.417Z,46.98
2019-01-30T18:06:29.974Z,47.03
2019-01-30T18:08:29.741Z,46.55
2019-01-30T18:10:31.359Z,46.97
2019-01-30T18:12:32.976Z,47.01
2019-01-30T18:14:34.632Z,46.42
2019-01-30T18:16:36.229Z,47.07
2019-01-30T18:18:37.827Z,47.20
2019-01-30T18:20:39.479Z,47.24
2019-01-30T18:22:41.092Z,47.33
2019-01-30T18:24:42.694Z,47.73
2019-01-30T18:26:44.284Z,47.14
2019-01-30T18:28:47.907Z,47.20
2019-01-30T18:30:47.517Z,47.48
2019-01-30T18:32:49.128Z,47.51
2019-01-30T18:34:50.749Z,46.74
2019-01-30T18:36:52.346Z,47.02
2019-01-30T18:38:53.959Z,47.44
2019-01-30T18:40:55.601Z,47.34
2019-01-30T18:42:57.193Z,47.53
2019-01-30T18:44:58.790Z,46.82
2019-01-30T18:47:00.439Z,49.99
2019-01-30T18:49:02.037Z,46.88
2019-01-30T18:51:03.634Z,46.72
2019-01-30T18:53:05.283Z,46.99
2019-01-30T18:55:06.893Z,46.51
2019-01-30T18:57:08.503Z,46.58
2019-01-30T18:59:10.115Z,46.43
2019-01-30T19:01:11.719Z,46.97
2019-01-30T19:03:13.328Z,47.05
2019-01-30T19:05:14.970Z,46.90
2019-01-30T19:07:16.565Z,47.77
2019-01-30T19:09:18.173Z,47.52
2019-01-30T19:11:19.769Z,47.60
2019-01-30T19:13:21.380Z,47.38
2019-01-30T19:15:23.057Z,47.09
2019-01-30T19:17:24.724Z,47.12
2019-01-30T19:19:26.322Z,46.52
2019-01-30T19:21:27.911Z,46.47
2019-01-30T19:23:29.524Z,45.57
2019-01-30T19:25:31.110Z,46.15
2019-01-30T19:27:32.723Z,46.03
2019-01-30T19:29:34.367Z,46.11
2019-01-30T19:31:36.557Z,46.35
2019-01-30T19:33:38.173Z,46.57
2019-01-30T19:35:39.840Z,46.74
2019-01-30T19:37:41.451Z,47.14
2019-01-30T19:39:43.064Z,47.13
2019-01-30T19:41:44.661Z,47.01
2019-01-30T19:43:46.279Z,47.12
2019-01-30T19:45:47.878Z,46.87
2019-01-30T19:47:49.483Z,46.50
2019-01-30T19:49:51.144Z,46.92
2019-01-30T19:51:52.741Z,46.48
2019-01-30T19:53:54.347Z,46.66
2019-01-30T19:55:55.960Z,47.31
2019-01-30T19:57:57.561Z,47.12
2019-01-30T19:59:59.175Z,46.93
2019-01-30T20:02:00.829Z,46.95
2019-01-30T20:04:02.584Z,46.96
2019-01-30T20:06:04.181Z,47.38
2019-01-30T20:08:05.847Z,47.83
2019-01-30T20:10:07.450Z,47.87
2019-01-30T20:12:09.057Z,47.35
2019-01-30T20:14:10.643Z,47.33
2019-01-30T20:16:12.242Z,47.55
2019-01-30T20:18:13.832Z,47.79
2019-01-30T20:20:15.489Z,47.77
2019-01-30T20:22:17.086Z,48.17
2019-01-30T20:24:18.682Z,48.38
2019-01-30T20:26:20.281Z,48.28
2019-01-30T20:28:21.877Z,49.06
2019-01-30T20:30:23.519Z,47.32
2019-01-30T20:32:25.117Z,46.17
2019-01-30T20:34:26.721Z,47.53
2019-01-30T20:36:28.304Z,46.96
2019-01-30T20:38:29.888Z,46.49
2019-01-30T20:40:31.544Z,46.67
2019-01-30T20:42:33.157Z,46.69
2019-01-30T20:44:34.768Z,46.84
2019-01-30T20:46:36.400Z,47.01
2019-01-30T20:48:45.555Z,46.88
2019-01-30T20:50:39.659Z,46.99
2019-01-30T20:52:41.264Z,46.96
2019-01-30T20:54:42.899Z,46.81
2019-01-30T20:56:44.498Z,47.41
2019-01-30T20:58:46.093Z,47.44
2019-01-30T21:00:47.748Z,47.57
2019-01-30T21:02:49.359Z,47.82
2019-01-30T21:04:50.972Z,47.77
2019-01-30T21:06:52.601Z,47.83
2019-01-30T21:08:54.197Z,48.33
2019-01-30T21:10:55.790Z,48.39
2019-01-30T21:12:57.387Z,48.21
2019-01-30T21:14:58.990Z,48.53
2019-01-30T21:17:00.648Z,47.86
2019-01-30T21:19:02.260Z,34.59
2019-01-30T21:21:03.874Z,34.63
2019-01-30T21:23:05.508Z,38.49
2019-01-30T21:25:07.106Z,39.51
2019-01-30T21:27:08.766Z,39.65
2019-01-30T21:29:10.376Z,40.58
2019-01-30T21:31:11.996Z,41.30
2019-01-30T21:33:13.598Z,42.05
2019-01-30T21:35:15.207Z,42.55
2019-01-30T21:37:16.848Z,42.97
2019-01-30T21:39:18.451Z,43.58
2019-01-30T21:41:20.064Z,43.93
2019-01-30T21:43:21.676Z,44.26
2019-01-30T21:45:23.316Z,44.65
2019-01-30T21:47:24.935Z,45.07
2019-01-30T21:49:26.565Z,45.30
2019-01-30T21:51:28.165Z,45.64
2019-01-30T21:53:29.773Z,46.03
2019-01-30T21:55:31.409Z,46.27
2019-01-30T21:57:33.007Z,46.48
2019-01-30T21:59:34.605Z,46.59
2019-01-30T22:01:36.188Z,46.85
2019-01-30T22:03:37.786Z,46.93
2019-01-30T22:05:39.438Z,47.08
2019-01-30T22:07:41.049Z,47.25
2019-01-30T22:09:42.636Z,47.43
2019-01-30T22:11:44.279Z,47.58
2019-01-30T22:13:45.880Z,47.75
2019-01-30T22:15:47.487Z,47.89
2019-01-30T22:17:49.110Z,48.15
2019-01-30T22:19:50.715Z,48.26
2019-01-30T22:21:52.319Z,48.24
2019-01-30T22:24:05.026Z,48.46
2019-01-30T22:25:55.629Z,48.63
2019-01-30T22:27:57.975Z,48.82
2019-01-30T22:29:59.598Z,48.77
2019-01-30T22:32:01.198Z,48.96
2019-01-30T22:34:02.904Z,49.44
2019-01-30T22:36:04.501Z,49.45
2019-01-30T22:38:12.635Z,49.66
2019-01-30T22:40:07.802Z,49.67
2019-01-30T22:42:09.412Z,49.68
2019-01-30T22:44:11.024Z,49.70
2019-01-30T22:46:12.621Z,49.76
2019-01-30T22:48:14.233Z,49.85
2019-01-30T22:50:15.831Z,49.86
2019-01-30T22:52:17.441Z,50.05
2019-01-30T22:54:19.043Z,50.04
2019-01-30T22:56:20.641Z,50.12
2019-01-30T22:58:22.332Z,50.22
2019-01-30T23:00:23.880Z,50.18
2019-01-30T23:02:25.831Z,50.25
2019-01-30T23:04:27.476Z,50.44
2019-01-30T23:06:29.074Z,50.39
2019-01-30T23:08:30.661Z,50.41
2019-01-30T23:10:32.254Z,50.63
2019-01-30T23:12:33.851Z,50.59
2019-01-30T23:14:35.508Z,50.62
2019-01-30T23:16:37.106Z,50.63
2019-01-30T23:18:38.709Z,50.91
2019-01-30T23:20:40.343Z,50.92
2019-01-30T23:22:41.942Z,51.16
2019-01-30T23:24:43.572Z,51.00
2019-01-30T23:26:45.214Z,51.30
2019-01-30T23:28:46.814Z,51.46
2019-01-30T23:30:48.414Z,51.84
2019-01-30T23:32:50.038Z,52.04
2019-01-30T23:34:51.643Z,52.24
2019-01-30T23:36:53.256Z,52.52
2019-01-30T23:38:54.901Z,52.81
2019-01-30T23:40:56.499Z,52.89
2019-01-30T23:42:58.113Z,53.14
2019-01-30T23:44:59.865Z,53.40
2019-01-30T23:47:01.453Z,53.62
2019-01-30T23:49:03.056Z,53.61
2019-01-30T23:51:04.663Z,53.96
2019-01-30T23:53:06.284Z,54.26
2019-01-30T23:55:07.884Z,54.10
2019-01-30T23:57:09.481Z,54.10
2019-01-30T23:59:11.074Z,54.57
